Biola, California
Current Conditions -  °F | °C
As of 1:53 PM on Sunday 21 Dec 2014 (Local Time) from KMAE Reporting Station
Overcast Overcast  
Wind Chill: 60°   Ceiling: 1600
Heat Index: 60°   Visibility: 9mi
Dew Point: 52°   Wind: 0mph
Humidity: 75%   Direction: NA
Pressure: 30.24"   Gusts: NA
Location:  36.8°N, 120.02°W
Report Text: KMAE 212153Z AUTO 00000KT 9SM OVC016 16/11 A3024 RMK AO2 SLP238 T01560111
Loading
Personal Weather Stations






























Interactive Weather Map New forecast layout! Learn more

10-Day Weather Forecast

Advertisements
Track Severe Weather on mobile